Montrose, Mississippi
Current Conditions -  °F | °C
As of 3:58 AM on Monday 22 Dec 2014 (Local Time) from KMEI Reporting Station
Overcast Overcast  
Wind Chill: 52°   Ceiling: 500
Heat Index: 52°   Visibility: 8mi
Dew Point: 50°   Wind: 3mph
Humidity: 93%   Direction: 110°ESE
Pressure: 29.92"   Gusts: NA
Location:  32.135°N, 89.2194°W
Report Text: KMEI 220958Z AUTO 11003KT 8SM OVC005 11/10 A2992 RMK AO2 SLP130 T01110100
Loading
Personal Weather Stations






























Interactive Weather Map New forecast layout! Learn more

10-Day Weather Forecast

Advertisements
Track Severe Weather on mobile